createdAt,value
2023-09-16T00:00:21.140Z,102590.75
2023-09-16T00:02:49.691Z,102586.59
2023-09-16T00:05:18.577Z,102586.59
2023-09-16T00:07:46.551Z,102586.25
2023-09-16T00:10:13.822Z,102586.53
2023-09-16T00:12:41.109Z,102587.09
2023-09-16T00:15:08.787Z,102584.31
2023-09-16T00:17:36.119Z,102590.06
2023-09-16T00:20:16.531Z,102587.69
2023-09-16T00:22:44.732Z,102589.88
2023-09-16T00:25:15.475Z,102592.91
2023-09-16T00:27:42.836Z,102594.41
2023-09-16T00:30:10.642Z,102589.69
2023-09-16T00:32:38.118Z,102590.94
2023-09-16T00:35:05.782Z,102589.94
2023-09-16T00:37:33.038Z,102586.81
2023-09-16T00:40:00.357Z,102581.59
2023-09-16T00:42:27.712Z,102577.59
2023-09-16T00:44:55.082Z,102575.41
2023-09-16T00:47:22.575Z,102580.44
2023-09-16T00:49:50.616Z,102578.72
2023-09-16T00:52:17.942Z,102581.88
2023-09-16T00:54:45.392Z,102592.16
2023-09-16T00:57:15.341Z,102580.34
2023-09-16T00:59:43.218Z,102583.94
2023-09-16T01:02:11.204Z,102580.41
2023-09-16T01:04:41.150Z,102586.44
2023-09-16T01:07:08.695Z,102584.72
2023-09-16T01:09:36.385Z,102576.34
2023-09-16T01:12:05.186Z,102593.78
2023-09-16T01:14:32.483Z,102578.34
2023-09-16T01:17:01.899Z,102584.25
2023-09-16T01:19:37.419Z,102583.56
2023-09-16T01:22:05.710Z,102587.69
2023-09-16T01:24:33.042Z,102584.34
2023-09-16T01:27:00.348Z,102598.44
2023-09-16T01:29:28.514Z,102593.00
2023-09-16T01:31:58.439Z,102599.66
2023-09-16T01:34:30.745Z,102589.09
2023-09-16T01:36:59.003Z,102593.66
2023-09-16T01:39:30.600Z,102588.34
2023-09-16T01:41:59.603Z,102592.63
2023-09-16T01:44:27.137Z,102586.06
2023-09-16T01:46:57.564Z,102585.19
2023-09-16T01:49:25.157Z,102589.50
2023-09-16T01:51:52.591Z,102584.09
2023-09-16T01:54:19.846Z,102582.47
2023-09-16T01:56:47.223Z,102578.78
2023-09-16T01:59:14.724Z,102587.28
2023-09-16T02:01:42.398Z,102585.38
2023-09-16T02:04:10.001Z,102590.44
2023-09-16T02:06:37.625Z,102583.75
2023-09-16T02:09:05.955Z,102584.31
2023-09-16T02:11:33.475Z,102592.63
2023-09-16T02:14:00.866Z,102586.81
2023-09-16T02:16:28.651Z,102583.88
2023-09-16T02:18:56.298Z,102585.19
2023-09-16T02:21:23.656Z,102585.88
2023-09-16T02:23:50.901Z,102590.34
2023-09-16T02:26:18.167Z,102590.34
2023-09-16T02:28:45.431Z,102586.81
2023-09-16T02:31:12.777Z,102585.94
2023-09-16T02:33:40.105Z,102583.56
2023-09-16T02:36:07.577Z,102584.13
2023-09-16T02:38:34.880Z,102580.06
2023-09-16T02:41:05.636Z,102580.75
2023-09-16T02:43:33.062Z,102577.75
2023-09-16T02:46:00.482Z,102575.75
2023-09-16T02:48:27.868Z,102567.50
2023-09-16T02:50:55.409Z,102575.56
2023-09-16T02:53:22.981Z,102567.22
2023-09-16T02:55:50.308Z,102573.97
2023-09-16T02:58:17.601Z,102569.41
2023-09-16T03:00:48.335Z,102573.59
2023-09-16T03:03:15.857Z,102573.22
2023-09-16T03:05:46.684Z,102573.22
2023-09-16T03:08:14.566Z,102572.47
2023-09-16T03:10:42.222Z,102570.78
2023-09-16T03:13:09.511Z,102571.31
2023-09-16T03:15:37.789Z,102574.72
2023-09-16T03:18:08.684Z,102573.06
2023-09-16T03:20:36.349Z,102570.94
2023-09-16T03:23:03.695Z,102573.44
2023-09-16T03:25:30.903Z,102569.91
2023-09-16T03:27:58.489Z,102570.09
2023-09-16T03:30:26.139Z,102575.25
2023-09-16T03:32:53.757Z,102571.63
2023-09-16T03:35:22.680Z,102577.44
2023-09-16T03:37:50.614Z,102570.78
2023-09-16T03:40:18.103Z,102566.41
2023-09-16T03:42:45.625Z,102571.03
2023-09-16T03:45:27.111Z,102570.19
2023-09-16T03:47:57.473Z,102564.41
2023-09-16T03:50:24.836Z,102566.81
2023-09-16T03:52:52.466Z,102566.88
2023-09-16T03:55:20.376Z,102564.78
2023-09-16T03:57:47.867Z,102571.03
2023-09-16T04:00:15.293Z,102569.03
2023-09-16T04:02:42.622Z,102562.44
2023-09-16T04:05:11.210Z,102563.13
2023-09-16T04:07:39.352Z,102564.19
2023-09-16T04:10:08.356Z,102557.72
2023-09-16T04:12:36.053Z,102556.13
2023-09-16T04:15:04.194Z,102557.72
2023-09-16T04:17:31.721Z,102555.03
2023-09-16T04:19:59.009Z,102559.81
2023-09-16T04:22:26.290Z,102556.50
2023-09-16T04:24:54.311Z,102559.34
2023-09-16T04:27:21.546Z,102559.22
2023-09-16T04:29:49.074Z,102554.84
2023-09-16T04:32:16.576Z,102543.03
2023-09-16T04:34:43.931Z,102550.56
2023-09-16T04:37:11.668Z,102554.00
2023-09-16T04:39:39.656Z,102555.03
2023-09-16T04:42:06.942Z,102548.75
2023-09-16T04:44:40.043Z,102547.41
2023-09-16T04:47:11.603Z,102548.94
2023-09-16T04:49:38.887Z,102550.75
2023-09-16T04:52:06.259Z,102548.34
2023-09-16T04:54:34.143Z,102549.63
2023-09-16T04:57:02.839Z,102549.69
2023-09-16T04:59:33.834Z,102546.97
2023-09-16T05:02:01.234Z,102542.69
2023-09-16T05:04:28.718Z,102544.06
2023-09-16T05:06:56.151Z,102547.84
2023-09-16T05:09:23.622Z,102554.81
2023-09-16T05:11:51.221Z,102546.38
2023-09-16T05:14:18.791Z,102559.50
2023-09-16T05:16:46.333Z,102563.19
2023-09-16T05:19:13.668Z,102560.28
2023-09-16T05:21:41.068Z,102558.56
2023-09-16T05:24:08.389Z,102556.56
2023-09-16T05:26:35.786Z,102558.28
2023-09-16T05:29:03.155Z,102558.19
2023-09-16T05:31:30.823Z,102563.91
2023-09-16T05:33:58.478Z,102559.44
2023-09-16T05:36:28.590Z,102561.56
2023-09-16T05:38:56.193Z,102567.47
2023-09-16T05:41:23.752Z,102563.00
2023-09-16T05:43:51.326Z,102572.34
2023-09-16T05:46:18.864Z,102567.59
2023-09-16T05:48:46.268Z,102560.38
2023-09-16T05:51:13.650Z,102556.75
2023-09-16T05:53:43.153Z,102568.72
2023-09-16T05:56:10.743Z,102554.06
2023-09-16T05:58:38.059Z,102561.22
2023-09-16T06:01:09.983Z,102558.75
2023-09-16T06:03:37.553Z,102559.56
2023-09-16T06:06:05.294Z,102564.22
2023-09-16T06:08:32.872Z,102562.28
2023-09-16T06:11:00.361Z,102559.00
2023-09-16T06:13:27.927Z,102559.53
2023-09-16T06:15:55.673Z,102553.41
2023-09-16T06:18:23.585Z,102552.03
2023-09-16T06:20:51.532Z,102557.28
2023-09-16T06:23:19.183Z,102552.06
2023-09-16T06:25:46.563Z,102552.09
2023-09-16T06:28:13.907Z,102553.03
2023-09-16T06:30:41.288Z,102552.44
2023-09-16T06:33:08.868Z,102542.59
2023-09-16T06:35:36.478Z,102545.56
2023-09-16T06:38:04.167Z,102539.78
2023-09-16T06:40:31.738Z,102536.13
2023-09-16T06:42:59.120Z,102532.75
2023-09-16T06:45:26.412Z,102533.78
2023-09-16T06:47:56.393Z,102531.31
2023-09-16T06:50:23.769Z,102531.13
2023-09-16T06:52:51.440Z,102537.88
2023-09-16T06:55:19.123Z,102533.34
2023-09-16T06:57:46.774Z,102526.75
2023-09-16T07:00:14.801Z,102538.72
2023-09-16T07:02:43.011Z,102527.78
2023-09-16T07:05:11.500Z,102522.03
2023-09-16T07:07:39.636Z,102526.47
2023-09-16T07:10:07.947Z,102527.75
2023-09-16T07:12:35.577Z,102523.75
2023-09-16T07:15:03.224Z,102525.50
2023-09-16T07:17:33.581Z,102511.75
2023-09-16T07:20:01.506Z,102514.84
2023-09-16T07:22:29.078Z,102517.53
2023-09-16T07:24:57.599Z,102512.28
2023-09-16T07:27:25.182Z,102507.03
2023-09-16T07:29:52.764Z,102509.34
2023-09-16T07:32:20.222Z,102516.34
2023-09-16T07:34:47.484Z,102512.19
2023-09-16T07:37:15.515Z,102502.50
2023-09-16T07:39:46.001Z,102501.16
2023-09-16T07:42:13.479Z,102504.63
2023-09-16T07:44:40.832Z,102493.66
2023-09-16T07:47:08.177Z,102503.03
2023-09-16T07:49:36.480Z,102503.91
2023-09-16T07:52:04.329Z,102495.78
2023-09-16T07:54:32.484Z,102510.13
2023-09-16T07:56:59.908Z,102504.22
2023-09-16T07:59:27.729Z,102499.97
2023-09-16T08:01:55.281Z,102503.38
2023-09-16T08:04:22.904Z,102508.50
2023-09-16T08:06:51.486Z,102504.31
2023-09-16T08:09:18.881Z,102512.91
2023-09-16T08:11:46.135Z,102509.03
2023-09-16T08:14:13.386Z,102501.19
2023-09-16T08:16:40.828Z,102514.75
2023-09-16T08:19:09.019Z,102516.84
2023-09-16T08:21:36.606Z,102513.59
2023-09-16T08:24:03.967Z,102515.59
2023-09-16T08:26:31.286Z,102508.91
2023-09-16T08:28:58.582Z,102505.28
2023-09-16T08:31:25.940Z,102502.06
2023-09-16T08:33:55.001Z,102505.38
2023-09-16T08:36:23.294Z,102504.06
2023-09-16T08:38:51.088Z,102507.38
2023-09-16T08:41:21.265Z,102502.25
2023-09-16T08:43:49.151Z,102501.75
2023-09-16T08:46:18.503Z,102503.22
2023-09-16T08:48:46.684Z,102507.88
2023-09-16T08:51:17.711Z,102503.22
2023-09-16T08:53:45.321Z,102503.22
2023-09-16T08:56:13.958Z,102503.38
2023-09-16T08:58:41.687Z,102493.34
2023-09-16T09:01:12.728Z,102495.31
2023-09-16T09:03:40.301Z,102497.41
2023-09-16T09:06:08.430Z,102497.66
2023-09-16T09:08:36.034Z,102494.97
2023-09-16T09:11:03.582Z,102504.09
2023-09-16T09:13:31.207Z,102495.09
2023-09-16T09:16:02.201Z,102489.09
2023-09-16T09:18:31.081Z,102493.50
2023-09-16T09:20:58.880Z,102491.06
2023-09-16T09:23:27.563Z,102492.66
2023-09-16T09:25:55.142Z,102483.28
2023-09-16T09:28:22.819Z,102495.44
2023-09-16T09:30:50.723Z,102491.19
2023-09-16T09:33:20.614Z,102494.13
2023-09-16T09:35:48.205Z,102483.63
2023-09-16T09:38:15.834Z,102486.31
2023-09-16T09:41:03.300Z,102486.41
2023-09-16T09:43:31.564Z,102482.75
2023-09-16T09:45:59.126Z,102482.00
2023-09-16T09:48:26.641Z,102472.25
2023-09-16T09:50:54.047Z,102468.47
2023-09-16T09:53:22.704Z,102472.50
2023-09-16T09:55:50.486Z,102473.34
2023-09-16T09:58:18.435Z,102466.75
2023-09-16T10:00:49.863Z,102467.44
2023-09-16T10:03:20.969Z,102468.47
2023-09-16T10:05:48.555Z,102470.75
2023-09-16T10:08:15.855Z,102461.47
2023-09-16T10:10:46.557Z,102472.22
2023-09-16T10:13:14.390Z,102472.34
2023-09-16T10:15:42.093Z,102472.00
2023-09-16T10:18:09.704Z,102468.31
2023-09-16T10:20:38.945Z,102466.50
2023-09-16T10:23:06.877Z,102466.50
2023-09-16T10:25:37.767Z,102463.81
2023-09-16T10:28:08.826Z,102462.22
2023-09-16T10:30:37.543Z,102459.72
2023-09-16T10:33:06.229Z,102449.22
2023-09-16T10:35:34.325Z,102450.00
2023-09-16T10:38:03.876Z,102455.97
2023-09-16T10:40:31.928Z,102451.34
2023-09-16T10:43:00.005Z,102448.66
2023-09-16T10:45:27.518Z,102449.97
2023-09-16T10:47:55.149Z,102447.88
2023-09-16T10:50:25.894Z,102460.34
2023-09-16T10:52:56.433Z,102453.78
2023-09-16T10:55:23.679Z,102448.16
2023-09-16T10:57:56.397Z,102447.63
2023-09-16T11:00:24.317Z,102450.25
2023-09-16T11:02:58.071Z,102448.25
2023-09-16T11:05:26.649Z,102450.63
2023-09-16T11:07:54.613Z,102458.56
2023-09-16T11:10:22.567Z,102450.91
2023-09-16T11:12:53.370Z,102448.84
2023-09-16T11:15:20.765Z,102440.22
2023-09-16T11:17:48.953Z,102441.72
2023-09-16T11:20:29.808Z,102438.50
2023-09-16T11:22:57.109Z,102434.13
2023-09-16T11:25:24.673Z,102432.78
2023-09-16T11:27:52.295Z,102434.34
2023-09-16T11:30:19.616Z,102424.41
2023-09-16T11:32:56.019Z,102421.53
2023-09-16T11:35:24.433Z,102421.91
2023-09-16T11:37:51.752Z,102425.09
2023-09-16T11:40:19.645Z,102429.06
2023-09-16T11:42:47.243Z,102427.63
2023-09-16T11:45:18.384Z,102427.91
2023-09-16T11:47:48.581Z,102426.56
2023-09-16T11:50:22.651Z,102428.13
2023-09-16T11:52:50.551Z,102406.41
2023-09-16T11:55:18.676Z,102417.72
2023-09-16T11:57:46.982Z,102409.81
2023-09-16T12:00:15.515Z,102415.19
2023-09-16T12:02:43.169Z,102412.09
2023-09-16T12:05:10.999Z,102395.97
2023-09-16T12:07:39.105Z,102396.50
2023-09-16T12:10:07.158Z,102393.69
2023-09-16T12:12:34.734Z,102388.44
2023-09-16T12:15:03.461Z,102386.47
2023-09-16T12:17:31.088Z,102386.06
2023-09-16T12:19:58.785Z,102390.28
2023-09-16T12:22:26.919Z,102387.69
2023-09-16T12:24:56.095Z,102382.44
2023-09-16T12:27:24.706Z,102399.91
2023-09-16T12:29:52.002Z,102384.63
2023-09-16T12:32:22.595Z,102388.44
2023-09-16T12:35:11.268Z,102383.41
2023-09-16T12:37:40.380Z,102375.25
2023-09-16T12:40:08.273Z,102378.03
2023-09-16T12:42:36.451Z,102369.97
2023-09-16T12:45:04.707Z,102381.41
2023-09-16T12:47:32.264Z,102371.19
2023-09-16T12:49:59.567Z,102369.00
2023-09-16T12:52:27.897Z,102369.16
2023-09-16T12:54:55.915Z,102373.25
2023-09-16T12:57:25.086Z,102373.41
2023-09-16T13:00:04.924Z,102362.44
2023-09-16T13:02:36.800Z,102367.28
2023-09-16T13:05:20.651Z,102357.13
2023-09-16T13:07:55.017Z,102357.06
2023-09-16T13:10:22.699Z,102355.06
2023-09-16T13:12:51.347Z,102349.44
2023-09-16T13:15:21.735Z,102342.22
2023-09-16T13:18:01.312Z,102336.13
2023-09-16T13:20:32.367Z,102333.84
2023-09-16T13:22:59.823Z,102343.00
2023-09-16T13:25:30.161Z,102350.19
2023-09-16T13:28:10.957Z,102344.97
2023-09-16T13:30:39.466Z,102332.53
2023-09-16T13:33:07.890Z,102334.34
2023-09-16T13:35:36.595Z,102328.69
2023-09-16T13:38:04.528Z,102316.41
2023-09-16T13:40:32.578Z,102326.41
2023-09-16T13:43:01.037Z,102323.72
2023-09-16T13:45:28.951Z,102316.94
2023-09-16T13:48:14.965Z,102312.97
2023-09-16T13:50:43.680Z,102314.25
2023-09-16T13:53:12.920Z,102314.09
2023-09-16T13:55:40.616Z,102310.44
2023-09-16T13:58:08.600Z,102306.03
2023-09-16T14:00:36.934Z,102306.19
2023-09-16T14:03:07.506Z,102304.59
2023-09-16T14:05:35.157Z,102303.91
2023-09-16T14:08:02.912Z,102303.19
2023-09-16T14:10:31.517Z,102303.19
2023-09-16T14:12:59.824Z,102300.63
2023-09-16T14:15:27.899Z,102296.22
2023-09-16T14:17:58.144Z,102293.41
2023-09-16T14:20:25.465Z,102291.69
2023-09-16T14:22:52.768Z,102296.09
2023-09-16T14:25:20.864Z,102288.91
2023-09-16T14:27:48.455Z,102289.16
2023-09-16T14:30:18.380Z,102283.78
2023-09-16T14:32:46.514Z,102287.59
2023-09-16T14:35:15.690Z,102286.88
2023-09-16T14:37:43.449Z,102278.97
2023-09-16T14:40:11.927Z,102278.09
2023-09-16T14:42:39.944Z,102287.03
2023-09-16T14:45:08.279Z,102278.09
2023-09-16T14:47:35.846Z,102273.72
2023-09-16T14:50:03.463Z,102279.09
2023-09-16T14:52:31.735Z,102272.84
2023-09-16T14:54:59.797Z,102269.19
2023-09-16T14:57:27.399Z,102270.31
2023-09-16T14:59:54.930Z,102273.00
2023-09-16T15:02:22.673Z,102274.84
2023-09-16T15:04:57.219Z,102271.84
2023-09-16T15:07:25.147Z,102268.56
2023-09-16T15:09:52.753Z,102267.97
2023-09-16T15:12:20.289Z,102270.53
2023-09-16T15:14:47.576Z,102266.53
2023-09-16T15:17:14.857Z,102264.56
2023-09-16T15:19:42.251Z,102266.41
2023-09-16T15:22:09.673Z,102259.00
2023-09-16T15:24:37.026Z,102261.69
2023-09-16T15:27:04.509Z,102254.06
2023-09-16T15:29:32.004Z,102262.66
2023-09-16T15:32:16.415Z,102257.13
2023-09-16T15:34:47.412Z,102250.50
2023-09-16T15:37:15.659Z,102247.09
2023-09-16T15:39:43.412Z,102244.06
2023-09-16T15:42:10.738Z,102241.53
2023-09-16T15:44:38.604Z,102247.88
2023-09-16T15:47:06.193Z,102240.63
2023-09-16T15:49:35.410Z,102249.28
2023-09-16T15:52:03.126Z,102240.38
2023-09-16T15:54:30.606Z,102247.75
2023-09-16T15:56:57.881Z,102250.34
2023-09-16T15:59:25.354Z,102245.34
2023-09-16T16:01:53.015Z,102243.00
2023-09-16T16:04:20.724Z,102241.81
2023-09-16T16:06:48.215Z,102240.25
2023-09-16T16:09:15.760Z,102241.81
2023-09-16T16:11:43.217Z,102244.13
2023-09-16T16:14:11.740Z,102235.47
2023-09-16T16:16:39.734Z,102239.72
2023-09-16T16:19:08.617Z,102239.03
2023-09-16T16:21:38.063Z,102236.00
2023-09-16T16:24:06.475Z,102243.00
2023-09-16T16:26:34.180Z,102237.63
2023-09-16T16:29:01.856Z,102245.19
2023-09-16T16:31:29.542Z,102235.66
2023-09-16T16:33:58.301Z,102237.41
2023-09-16T16:36:25.685Z,102235.88
2023-09-16T16:38:52.948Z,102229.91
2023-09-16T16:41:21.009Z,102232.94
2023-09-16T16:43:49.831Z,102230.38
2023-09-16T16:46:17.918Z,102228.81
2023-09-16T16:48:45.309Z,102227.63
2023-09-16T16:51:14.638Z,102226.44
2023-09-16T16:53:42.693Z,102229.09
2023-09-16T16:56:10.038Z,102226.63
2023-09-16T16:58:37.968Z,102227.03
2023-09-16T17:01:05.651Z,102218.28
2023-09-16T17:03:33.195Z,102226.94
2023-09-16T17:06:00.688Z,102220.47
2023-09-16T17:08:28.263Z,102217.19
2023-09-16T17:10:55.880Z,102219.78
2023-09-16T17:13:23.407Z,102217.09
2023-09-16T17:15:50.801Z,102218.69
2023-09-16T17:18:17.983Z,102224.66
2023-09-16T17:20:45.559Z,102216.13
2023-09-16T17:23:13.200Z,102218.44
2023-09-16T17:25:44.603Z,102218.56
2023-09-16T17:28:13.248Z,102219.88
2023-09-16T17:30:41.070Z,102204.06
2023-09-16T17:33:08.699Z,102211.03
2023-09-16T17:35:36.336Z,102212.22
2023-09-16T17:38:04.024Z,102207.03
2023-09-16T17:40:31.714Z,102207.72
2023-09-16T17:42:59.294Z,102203.59
2023-09-16T17:45:26.615Z,102203.22
2023-09-16T17:47:53.970Z,102193.75
2023-09-16T17:50:21.470Z,102188.00
2023-09-16T17:52:48.840Z,102194.56
2023-09-16T17:55:17.792Z,102196.63
2023-09-16T17:57:46.991Z,102198.97
2023-09-16T18:00:14.366Z,102198.03
2023-09-16T18:02:41.994Z,102198.25
2023-09-16T18:05:09.409Z,102191.81
2023-09-16T18:07:37.762Z,102192.66
2023-09-16T18:10:08.104Z,102188.50
2023-09-16T18:12:37.924Z,102183.06
2023-09-16T18:15:05.705Z,102189.34
2023-09-16T18:17:33.341Z,102188.75
2023-09-16T18:20:00.989Z,102173.53
2023-09-16T18:22:28.398Z,102175.72
2023-09-16T18:24:56.341Z,102175.69
2023-09-16T18:27:23.683Z,102167.69
2023-09-16T18:29:51.008Z,102165.84
2023-09-16T18:32:18.434Z,102165.13
2023-09-16T18:34:45.829Z,102164.75
2023-09-16T18:37:13.149Z,102158.69
2023-09-16T18:39:40.866Z,102159.41
2023-09-16T18:42:08.958Z,102154.78
2023-09-16T18:44:36.280Z,102155.25
2023-09-16T18:47:03.761Z,102144.69
2023-09-16T18:49:33.088Z,102147.13
2023-09-16T18:52:01.164Z,102145.50
2023-09-16T18:54:28.984Z,102151.38
2023-09-16T18:59:24.610Z,102141.53
2023-09-16T19:01:52.616Z,102137.88
2023-09-16T19:04:20.647Z,102142.38
2023-09-16T19:06:48.035Z,102145.28
2023-09-16T19:09:15.323Z,102143.25
2023-09-16T19:11:43.413Z,102142.16
2023-09-16T19:14:12.042Z,102136.53
2023-09-16T19:16:39.858Z,102135.94
2023-09-16T19:19:07.752Z,102133.38
2023-09-16T19:21:36.109Z,102123.09
2023-09-16T19:24:03.791Z,102124.97
2023-09-16T19:26:31.602Z,102118.94
2023-09-16T19:28:59.259Z,102116.03
2023-09-16T19:31:26.565Z,102110.25
2023-09-16T19:33:54.194Z,102107.22
2023-09-16T19:36:22.009Z,102108.66
2023-09-16T19:38:49.633Z,102102.91
2023-09-16T19:41:17.196Z,102106.97
2023-09-16T19:43:44.546Z,102103.16
2023-09-16T19:46:11.912Z,102094.91
2023-09-16T19:48:40.093Z,102092.22
2023-09-16T19:51:07.972Z,102091.72
2023-09-16T19:53:35.563Z,102094.13
2023-09-16T19:56:05.171Z,102082.78
2023-09-16T19:58:32.582Z,102077.34
2023-09-16T20:01:02.094Z,102079.31
2023-09-16T20:03:29.997Z,102071.00
2023-09-16T20:05:57.615Z,102078.63
2023-09-16T20:08:25.172Z,102069.09
2023-09-16T20:10:52.990Z,102076.47
2023-09-16T20:13:22.453Z,102073.63
2023-09-16T20:15:50.666Z,102063.66
2023-09-16T20:18:18.483Z,102059.16
2023-09-16T20:20:46.284Z,102056.69
2023-09-16T20:23:13.890Z,102061.41
2023-09-16T20:25:41.679Z,102056.50
2023-09-16T20:28:09.008Z,102054.56
2023-09-16T20:30:36.304Z,102050.50
2023-09-16T20:33:05.598Z,102057.13
2023-09-16T20:35:33.333Z,102053.00
2023-09-16T20:38:01.705Z,102046.44
2023-09-16T20:40:29.671Z,102052.22
2023-09-16T20:42:57.063Z,102053.19
2023-09-16T20:45:24.496Z,102053.00
2023-09-16T20:47:52.074Z,102050.28
2023-09-16T20:50:20.647Z,102052.84
2023-09-16T20:52:48.456Z,102040.47
2023-09-16T20:55:16.111Z,102040.69
2023-09-16T20:57:44.325Z,102042.88
2023-09-16T21:00:12.340Z,102033.63
2023-09-16T21:02:39.985Z,102036.66
2023-09-16T21:05:08.509Z,102028.06
2023-09-16T21:07:35.910Z,102037.78
2023-09-16T21:10:04.794Z,102030.16
2023-09-16T21:12:32.081Z,102025.38
2023-09-16T21:14:59.620Z,102020.22
2023-09-16T21:17:27.047Z,102023.63
2023-09-16T21:19:54.395Z,102026.53
2023-09-16T21:22:21.688Z,102026.16
2023-09-16T21:24:50.779Z,102028.91
2023-09-16T21:27:18.172Z,102020.19
2023-09-16T21:29:45.420Z,102019.16
2023-09-16T21:32:12.842Z,102011.78
2023-09-16T21:34:40.196Z,102014.16
2023-09-16T21:37:08.367Z,102010.63
2023-09-16T21:39:38.241Z,102003.00
2023-09-16T21:42:06.178Z,102001.31
2023-09-16T21:44:34.044Z,102000.13
2023-09-16T21:47:01.733Z,101992.78
2023-09-16T21:49:29.306Z,101995.53
2023-09-16T21:51:56.854Z,101996.03
2023-09-16T21:54:24.392Z,102002.34
2023-09-16T21:56:51.697Z,101998.13
2023-09-16T21:59:19.032Z,101998.41
2023-09-16T22:01:46.552Z,101990.63
2023-09-16T22:04:14.001Z,101995.34
2023-09-16T22:06:41.494Z,101994.16
2023-09-16T22:09:09.074Z,101983.34
2023-09-16T22:11:36.825Z,101980.38
2023-09-16T22:14:04.346Z,101983.34
2023-09-16T22:16:31.922Z,101978.22
2023-09-16T22:18:59.448Z,101973.06
2023-09-16T22:21:27.203Z,101977.06
2023-09-16T22:23:54.737Z,101975.09
2023-09-16T22:26:21.973Z,101974.13
2023-09-16T22:28:49.815Z,101964.19
2023-09-16T22:31:17.329Z,101958.75
2023-09-16T22:33:44.686Z,101957.66
2023-09-16T22:36:11.935Z,101957.91
2023-09-16T22:38:39.384Z,101954.47
2023-09-16T22:41:06.713Z,101957.03
2023-09-16T22:43:34.272Z,101960.03
2023-09-16T22:46:01.583Z,101947.16
2023-09-16T22:48:28.873Z,101951.53
2023-09-16T22:50:56.137Z,101948.41
2023-09-16T22:53:23.396Z,101946.19
2023-09-16T22:55:50.744Z,101947.44
2023-09-16T22:58:18.114Z,101942.00
2023-09-16T23:00:45.425Z,101941.09
2023-09-16T23:03:12.853Z,101946.69
2023-09-16T23:05:40.142Z,101942.44
2023-09-16T23:08:07.442Z,101932.88
2023-09-16T23:10:34.811Z,101942.94
2023-09-16T23:13:02.069Z,101930.84
2023-09-16T23:15:29.675Z,101934.00
2023-09-16T23:17:57.356Z,101929.00
2023-09-16T23:20:24.917Z,101929.81
2023-09-16T23:22:52.436Z,101925.13
2023-09-16T23:25:20.067Z,101920.16
2023-09-16T23:27:47.689Z,101916.25
2023-09-16T23:30:15.310Z,101906.34
2023-09-16T23:32:43.821Z,101906.75
2023-09-16T23:35:11.184Z,101903.31
2023-09-16T23:37:38.744Z,101899.06
2023-09-16T23:40:07.989Z,101899.66
2023-09-16T23:42:35.745Z,101904.78
2023-09-16T23:45:03.358Z,101894.78
2023-09-16T23:47:30.689Z,101901.75
2023-09-16T23:49:57.943Z,101892.50
2023-09-16T23:52:26.276Z,101890.59
2023-09-16T23:54:53.507Z,101889.59
2023-09-16T23:57:20.770Z,101890.06
2023-09-16T23:59:48.392Z,101878.75
